sensor_id;sensor_type;location;lat;lon;timestamp;temperature;humidity
28189;DHT22;15471;51.166;4.470;2023-02-26T00:01:17;1.20;99.90
28189;DHT22;15471;51.166;4.470;2023-02-26T00:03:42;1.20;99.90
28189;DHT22;15471;51.166;4.470;2023-02-26T00:06:08;1.20;99.90
28189;DHT22;15471;51.166;4.470;2023-02-26T00:08:35;1.20;99.90
28189;DHT22;15471;51.166;4.470;2023-02-26T00:11:01;1.30;99.90
28189;DHT22;15471;51.166;4.470;2023-02-26T00:13:30;1.20;99.90
28189;DHT22;15471;51.166;4.470;2023-02-26T00:15:59;1.20;99.90
28189;DHT22;15471;51.166;4.470;2023-02-26T00:18:25;1.20;99.90
28189;DHT22;15471;51.166;4.470;2023-02-26T00:20:51;1.20;99.90
28189;DHT22;15471;51.166;4.470;2023-02-26T00:23:17;1.20;99.90
28189;DHT22;15471;51.166;4.470;2023-02-26T00:25:44;1.10;99.90
28189;DHT22;15471;51.166;4.470;2023-02-26T00:28:11;1.10;99.90
28189;DHT22;15471;51.166;4.470;2023-02-26T00:30:38;1.10;99.90
28189;DHT22;15471;51.166;4.470;2023-02-26T00:33:04;1.00;99.90
28189;DHT22;15471;51.166;4.470;2023-02-26T00:35:31;1.00;99.90
28189;DHT22;15471;51.166;4.470;2023-02-26T00:38:00;1.00;99.90
28189;DHT22;15471;51.166;4.470;2023-02-26T00:40:48;1.00;99.90
28189;DHT22;15471;51.166;4.470;2023-02-26T00:43:17;0.90;99.90
28189;DHT22;15471;51.166;4.470;2023-02-26T00:46:09;0.90;99.90
28189;DHT22;15471;51.166;4.470;2023-02-26T00:53:55;0.90;99.90
28189;DHT22;15471;51.166;4.470;2023-02-26T00:56:24;0.80;99.90
28189;DHT22;15471;51.166;4.470;2023-02-26T00:58:49;0.80;99.90
28189;DHT22;15471;51.166;4.470;2023-02-26T01:01:15;0.80;99.90
28189;DHT22;15471;51.166;4.470;2023-02-26T01:03:41;0.80;99.90
28189;DHT22;15471;51.166;4.470;2023-02-26T01:06:12;0.80;99.90
28189;DHT22;15471;51.166;4.470;2023-02-26T01:11:16;0.80;99.90
28189;DHT22;15471;51.166;4.470;2023-02-26T01:13:42;0.80;99.90
28189;DHT22;15471;51.166;4.470;2023-02-26T01:16:11;0.80;99.90
28189;DHT22;15471;51.166;4.470;2023-02-26T01:18:49;0.80;99.90
28189;DHT22;15471;51.166;4.470;2023-02-26T01:21:24;0.90;99.90
28189;DHT22;15471;51.166;4.470;2023-02-26T01:23:52;0.80;99.90
28189;DHT22;15471;51.166;4.470;2023-02-26T01:26:23;0.80;99.90
28189;DHT22;15471;51.166;4.470;2023-02-26T01:28:50;0.80;99.90
28189;DHT22;15471;51.166;4.470;2023-02-26T01:33:55;0.90;99.90
28189;DHT22;15471;51.166;4.470;2023-02-26T01:36:30;0.90;99.90
28189;DHT22;15471;51.166;4.470;2023-02-26T01:39:27;0.90;99.90
28189;DHT22;15471;51.166;4.470;2023-02-26T01:41:59;0.90;99.90
28189;DHT22;15471;51.166;4.470;2023-02-26T01:44:38;0.90;99.90
28189;DHT22;15471;51.166;4.470;2023-02-26T01:49:47;0.90;99.90
28189;DHT22;15471;51.166;4.470;2023-02-26T01:54:59;1.00;99.90
28189;DHT22;15471;51.166;4.470;2023-02-26T01:57:25;0.90;99.90
28189;DHT22;15471;51.166;4.470;2023-02-26T01:59:51;1.00;99.90
28189;DHT22;15471;51.166;4.470;2023-02-26T02:02:21;1.00;99.90
28189;DHT22;15471;51.166;4.470;2023-02-26T02:04:48;1.00;99.90
28189;DHT22;15471;51.166;4.470;2023-02-26T02:07:15;1.10;99.90
28189;DHT22;15471;51.166;4.470;2023-02-26T02:09:42;1.10;99.90
28189;DHT22;15471;51.166;4.470;2023-02-26T02:15:11;1.10;99.90
28189;DHT22;15471;51.166;4.470;2023-02-26T02:34:44;1.30;99.90
28189;DHT22;15471;51.166;4.470;2023-02-26T02:39:52;1.40;99.90
28189;DHT22;15471;51.166;4.470;2023-02-26T02:42:55;1.40;99.90
28189;DHT22;15471;51.166;4.470;2023-02-26T02:45:28;1.40;99.90
28189;DHT22;15471;51.166;4.470;2023-02-26T02:48:00;1.40;99.90
28189;DHT22;15471;51.166;4.470;2023-02-26T02:53:22;1.30;99.90
28189;DHT22;15471;51.166;4.470;2023-02-26T02:56:23;1.30;99.90
28189;DHT22;15471;51.166;4.470;2023-02-26T02:58:59;1.20;99.90
28189;DHT22;15471;51.166;4.470;2023-02-26T03:01:26;1.20;99.90
28189;DHT22;15471;51.166;4.470;2023-02-26T03:04:09;1.10;99.90
28189;DHT22;15471;51.166;4.470;2023-02-26T03:06:36;1.10;99.90
28189;DHT22;15471;51.166;4.470;2023-02-26T03:09:04;1.00;99.90
28189;DHT22;15471;51.166;4.470;2023-02-26T03:11:31;1.10;99.90
28189;DHT22;15471;51.166;4.470;2023-02-26T03:13:57;1.00;99.90
28189;DHT22;15471;51.166;4.470;2023-02-26T03:22:38;0.90;99.90
28189;DHT22;15471;51.166;4.470;2023-02-26T03:25:27;0.90;99.90
28189;DHT22;15471;51.166;4.470;2023-02-26T03:28:07;0.90;99.90
28189;DHT22;15471;51.166;4.470;2023-02-26T03:39:45;0.80;99.90
28189;DHT22;15471;51.166;4.470;2023-02-26T03:45:15;0.70;99.90
28189;DHT22;15471;51.166;4.470;2023-02-26T03:47:50;0.70;99.90
28189;DHT22;15471;51.166;4.470;2023-02-26T03:50:25;0.60;99.90
28189;DHT22;15471;51.166;4.470;2023-02-26T03:53:19;0.70;99.90
28189;DHT22;15471;51.166;4.470;2023-02-26T03:58:46;0.70;99.90
28189;DHT22;15471;51.166;4.470;2023-02-26T04:01:43;0.70;99.90
28189;DHT22;15471;51.166;4.470;2023-02-26T04:04:38;0.70;99.90
28189;DHT22;15471;51.166;4.470;2023-02-26T04:07:01;0.70;99.90
28189;DHT22;15471;51.166;4.470;2023-02-26T04:09:28;0.70;99.90
28189;DHT22;15471;51.166;4.470;2023-02-26T04:11:56;0.70;99.90
28189;DHT22;15471;51.166;4.470;2023-02-26T04:14:22;0.60;99.90
28189;DHT22;15471;51.166;4.470;2023-02-26T04:16:50;0.50;99.90
28189;DHT22;15471;51.166;4.470;2023-02-26T04:19:16;0.40;99.90
28189;DHT22;15471;51.166;4.470;2023-02-26T04:21:43;0.50;99.90
28189;DHT22;15471;51.166;4.470;2023-02-26T04:24:10;0.50;99.90
28189;DHT22;15471;51.166;4.470;2023-02-26T04:26:36;0.40;99.90
28189;DHT22;15471;51.166;4.470;2023-02-26T04:29:02;0.40;99.90
28189;DHT22;15471;51.166;4.470;2023-02-26T04:31:28;0.40;99.90
28189;DHT22;15471;51.166;4.470;2023-02-26T04:33:54;0.30;99.90
28189;DHT22;15471;51.166;4.470;2023-02-26T04:36:20;0.30;99.90
28189;DHT22;15471;51.166;4.470;2023-02-26T04:38:46;0.30;99.90
28189;DHT22;15471;51.166;4.470;2023-02-26T04:41:12;0.20;99.90
28189;DHT22;15471;51.166;4.470;2023-02-26T04:43:38;0.20;99.90
28189;DHT22;15471;51.166;4.470;2023-02-26T04:46:15;0.20;99.90
28189;DHT22;15471;51.166;4.470;2023-02-26T04:48:41;0.20;99.90
28189;DHT22;15471;51.166;4.470;2023-02-26T04:51:07;0.10;99.90
28189;DHT22;15471;51.166;4.470;2023-02-26T04:53:33;0.10;99.90
28189;DHT22;15471;51.166;4.470;2023-02-26T04:55:58;0.00;99.90
28189;DHT22;15471;51.166;4.470;2023-02-26T04:58:25;0.20;99.90
28189;DHT22;15471;51.166;4.470;2023-02-26T05:00:52;0.00;99.90
28189;DHT22;15471;51.166;4.470;2023-02-26T05:03:20;0.00;99.90
28189;DHT22;15471;51.166;4.470;2023-02-26T05:05:47;0.00;99.90
28189;DHT22;15471;51.166;4.470;2023-02-26T05:08:13;0.00;99.90
28189;DHT22;15471;51.166;4.470;2023-02-26T05:10:39;0.00;99.90
28189;DHT22;15471;51.166;4.470;2023-02-26T05:13:05;0.00;99.90
28189;DHT22;15471;51.166;4.470;2023-02-26T05:15:31;-0.10;99.90
28189;DHT22;15471;51.166;4.470;2023-02-26T05:17:57;-0.10;99.90
28189;DHT22;15471;51.166;4.470;2023-02-26T05:20:23;-0.20;99.90
28189;DHT22;15471;51.166;4.470;2023-02-26T05:22:48;-0.20;99.90
28189;DHT22;15471;51.166;4.470;2023-02-26T05:25:14;-0.10;99.90
28189;DHT22;15471;51.166;4.470;2023-02-26T05:27:41;-0.20;99.90
28189;DHT22;15471;51.166;4.470;2023-02-26T05:30:10;-0.20;99.90
28189;DHT22;15471;51.166;4.470;2023-02-26T05:32:36;-0.20;99.90
28189;DHT22;15471;51.166;4.470;2023-02-26T05:35:02;-0.20;99.90
28189;DHT22;15471;51.166;4.470;2023-02-26T05:37:28;-0.20;99.90
28189;DHT22;15471;51.166;4.470;2023-02-26T05:39:54;-0.30;99.90
28189;DHT22;15471;51.166;4.470;2023-02-26T05:42:20;-0.30;99.90
28189;DHT22;15471;51.166;4.470;2023-02-26T05:44:46;-0.20;99.90
28189;DHT22;15471;51.166;4.470;2023-02-26T05:47:12;-0.20;99.90
28189;DHT22;15471;51.166;4.470;2023-02-26T05:49:37;-0.20;99.90
28189;DHT22;15471;51.166;4.470;2023-02-26T05:52:03;-0.20;99.90
28189;DHT22;15471;51.166;4.470;2023-02-26T05:54:29;-0.30;99.90
28189;DHT22;15471;51.166;4.470;2023-02-26T05:56:55;-0.20;99.90
28189;DHT22;15471;51.166;4.470;2023-02-26T05:59:21;-0.20;99.90
28189;DHT22;15471;51.166;4.470;2023-02-26T06:01:47;-0.20;99.90
28189;DHT22;15471;51.166;4.470;2023-02-26T06:04:13;-0.10;99.90
28189;DHT22;15471;51.166;4.470;2023-02-26T06:06:38;-0.10;99.90
28189;DHT22;15471;51.166;4.470;2023-02-26T06:09:05;-0.10;99.90
28189;DHT22;15471;51.166;4.470;2023-02-26T06:11:31;-0.20;99.90
28189;DHT22;15471;51.166;4.470;2023-02-26T06:13:57;-0.20;99.90
28189;DHT22;15471;51.166;4.470;2023-02-26T06:16:23;-0.20;99.90
28189;DHT22;15471;51.166;4.470;2023-02-26T06:18:49;-0.20;99.90
28189;DHT22;15471;51.166;4.470;2023-02-26T06:21:16;-0.30;99.90
28189;DHT22;15471;51.166;4.470;2023-02-26T06:23:42;-0.30;99.90
28189;DHT22;15471;51.166;4.470;2023-02-26T06:26:08;-0.30;99.90
28189;DHT22;15471;51.166;4.470;2023-02-26T06:28:34;-0.30;99.90
28189;DHT22;15471;51.166;4.470;2023-02-26T06:31:00;-0.30;99.90
28189;DHT22;15471;51.166;4.470;2023-02-26T06:33:26;-0.30;99.90
28189;DHT22;15471;51.166;4.470;2023-02-26T06:35:52;-0.40;99.90
28189;DHT22;15471;51.166;4.470;2023-02-26T06:38:18;-0.40;99.90
28189;DHT22;15471;51.166;4.470;2023-02-26T06:40:45;-0.40;99.90
28189;DHT22;15471;51.166;4.470;2023-02-26T06:43:11;-0.40;99.90
28189;DHT22;15471;51.166;4.470;2023-02-26T06:45:37;-0.40;99.90
28189;DHT22;15471;51.166;4.470;2023-02-26T06:48:03;-0.30;99.90
28189;DHT22;15471;51.166;4.470;2023-02-26T06:50:29;-0.30;99.90
28189;DHT22;15471;51.166;4.470;2023-02-26T06:52:56;-0.30;99.90
28189;DHT22;15471;51.166;4.470;2023-02-26T06:55:21;-0.30;99.90
28189;DHT22;15471;51.166;4.470;2023-02-26T06:57:55;-0.30;99.90
28189;DHT22;15471;51.166;4.470;2023-02-26T07:00:21;-0.30;99.90
28189;DHT22;15471;51.166;4.470;2023-02-26T07:02:48;-0.30;99.90
28189;DHT22;15471;51.166;4.470;2023-02-26T07:05:14;-0.30;99.90
28189;DHT22;15471;51.166;4.470;2023-02-26T07:07:40;-0.30;99.90
28189;DHT22;15471;51.166;4.470;2023-02-26T07:10:07;-0.20;99.90
28189;DHT22;15471;51.166;4.470;2023-02-26T07:12:33;-0.20;99.90
28189;DHT22;15471;51.166;4.470;2023-02-26T07:14:59;-0.20;99.90
28189;DHT22;15471;51.166;4.470;2023-02-26T07:17:25;-0.10;99.90
28189;DHT22;15471;51.166;4.470;2023-02-26T07:19:51;-0.10;99.90
28189;DHT22;15471;51.166;4.470;2023-02-26T07:22:18;0.00;99.90
28189;DHT22;15471;51.166;4.470;2023-02-26T07:24:44;0.10;99.90
28189;DHT22;15471;51.166;4.470;2023-02-26T07:27:11;0.10;99.90
28189;DHT22;15471;51.166;4.470;2023-02-26T07:29:37;0.10;99.90
28189;DHT22;15471;51.166;4.470;2023-02-26T07:32:03;0.10;99.90
28189;DHT22;15471;51.166;4.470;2023-02-26T07:34:30;0.20;99.90
28189;DHT22;15471;51.166;4.470;2023-02-26T07:36:56;0.30;99.90
28189;DHT22;15471;51.166;4.470;2023-02-26T07:39:24;0.30;99.90
28189;DHT22;15471;51.166;4.470;2023-02-26T07:41:51;0.40;99.90
28189;DHT22;15471;51.166;4.470;2023-02-26T07:44:17;0.40;99.90
28189;DHT22;15471;51.166;4.470;2023-02-26T07:46:42;0.50;99.90
28189;DHT22;15471;51.166;4.470;2023-02-26T07:49:08;0.50;99.90
28189;DHT22;15471;51.166;4.470;2023-02-26T07:51:34;0.50;99.90
28189;DHT22;15471;51.166;4.470;2023-02-26T07:54:01;0.60;99.90
28189;DHT22;15471;51.166;4.470;2023-02-26T07:56:27;0.70;99.90
28189;DHT22;15471;51.166;4.470;2023-02-26T07:58:53;0.70;99.90
28189;DHT22;15471;51.166;4.470;2023-02-26T08:01:19;0.70;99.90
28189;DHT22;15471;51.166;4.470;2023-02-26T08:03:45;0.80;99.90
28189;DHT22;15471;51.166;4.470;2023-02-26T08:06:11;0.80;99.90
28189;DHT22;15471;51.166;4.470;2023-02-26T08:08:36;0.90;99.90
28189;DHT22;15471;51.166;4.470;2023-02-26T08:11:02;0.90;99.90
28189;DHT22;15471;51.166;4.470;2023-02-26T08:13:28;0.90;99.90
28189;DHT22;15471;51.166;4.470;2023-02-26T08:15:54;1.10;99.90
28189;DHT22;15471;51.166;4.470;2023-02-26T08:18:20;1.10;99.90
28189;DHT22;15471;51.166;4.470;2023-02-26T08:20:46;1.20;99.90
28189;DHT22;15471;51.166;4.470;2023-02-26T08:23:11;1.20;99.90
28189;DHT22;15471;51.166;4.470;2023-02-26T08:25:38;1.20;99.90
28189;DHT22;15471;51.166;4.470;2023-02-26T08:28:04;1.20;99.90
28189;DHT22;15471;51.166;4.470;2023-02-26T08:30:30;1.30;99.90
28189;DHT22;15471;51.166;4.470;2023-02-26T08:32:55;1.30;99.90
28189;DHT22;15471;51.166;4.470;2023-02-26T08:35:21;1.40;99.90
28189;DHT22;15471;51.166;4.470;2023-02-26T08:37:47;1.40;99.90
28189;DHT22;15471;51.166;4.470;2023-02-26T08:40:13;1.50;99.90
28189;DHT22;15471;51.166;4.470;2023-02-26T08:42:39;1.50;99.90
28189;DHT22;15471;51.166;4.470;2023-02-26T08:45:06;1.60;99.90
28189;DHT22;15471;51.166;4.470;2023-02-26T08:47:32;1.70;99.90
28189;DHT22;15471;51.166;4.470;2023-02-26T08:49:58;1.70;99.90
28189;DHT22;15471;51.166;4.470;2023-02-26T08:52:24;1.70;99.90
28189;DHT22;15471;51.166;4.470;2023-02-26T08:54:51;2.10;99.90
28189;DHT22;15471;51.166;4.470;2023-02-26T08:57:16;2.50;99.90
28189;DHT22;15471;51.166;4.470;2023-02-26T08:59:42;2.90;99.90
28189;DHT22;15471;51.166;4.470;2023-02-26T09:02:12;3.20;99.90
28189;DHT22;15471;51.166;4.470;2023-02-26T09:04:38;3.30;99.90
28189;DHT22;15471;51.166;4.470;2023-02-26T09:07:04;3.30;99.90
28189;DHT22;15471;51.166;4.470;2023-02-26T09:09:30;3.30;99.90
28189;DHT22;15471;51.166;4.470;2023-02-26T09:11:56;3.30;99.90
28189;DHT22;15471;51.166;4.470;2023-02-26T09:14:22;3.50;99.90
28189;DHT22;15471;51.166;4.470;2023-02-26T09:16:47;3.80;99.90
28189;DHT22;15471;51.166;4.470;2023-02-26T09:19:14;3.70;99.90
28189;DHT22;15471;51.166;4.470;2023-02-26T09:21:40;4.00;99.90
28189;DHT22;15471;51.166;4.470;2023-02-26T09:24:06;4.00;99.90
28189;DHT22;15471;51.166;4.470;2023-02-26T09:26:32;3.80;99.90
28189;DHT22;15471;51.166;4.470;2023-02-26T09:28:58;3.80;99.90
28189;DHT22;15471;51.166;4.470;2023-02-26T09:31:24;3.80;99.90
28189;DHT22;15471;51.166;4.470;2023-02-26T09:33:50;3.80;99.90
28189;DHT22;15471;51.166;4.470;2023-02-26T09:36:15;3.80;99.90
28189;DHT22;15471;51.166;4.470;2023-02-26T09:38:41;3.90;99.90
28189;DHT22;15471;51.166;4.470;2023-02-26T09:44:09;3.50;99.90
28189;DHT22;15471;51.166;4.470;2023-02-26T09:52:26;3.40;99.90
28189;DHT22;15471;51.166;4.470;2023-02-26T09:55:49;3.40;99.90
28189;DHT22;15471;51.166;4.470;2023-02-26T09:57:53;3.40;99.90
28189;DHT22;15471;51.166;4.470;2023-02-26T10:00:29;3.50;99.90
28189;DHT22;15471;51.166;4.470;2023-02-26T10:12:11;3.80;99.90
28189;DHT22;15471;51.166;4.470;2023-02-26T10:14:39;3.80;99.90
28189;DHT22;15471;51.166;4.470;2023-02-26T10:17:34;3.90;99.90
28189;DHT22;15471;51.166;4.470;2023-02-26T10:20:30;3.90;99.90
28189;DHT22;15471;51.166;4.470;2023-02-26T10:25:40;4.10;99.90
28189;DHT22;15471;51.166;4.470;2023-02-26T10:31:02;4.00;99.90
28189;DHT22;15471;51.166;4.470;2023-02-26T10:33:52;3.90;99.90
28189;DHT22;15471;51.166;4.470;2023-02-26T10:36:29;4.00;99.90
28189;DHT22;15471;51.166;4.470;2023-02-26T10:39:20;4.00;99.90
28189;DHT22;15471;51.166;4.470;2023-02-26T10:41:47;4.00;99.90
28189;DHT22;15471;51.166;4.470;2023-02-26T10:44:19;4.10;99.90
28189;DHT22;15471;51.166;4.470;2023-02-26T10:49:58;4.20;99.90
28189;DHT22;15471;51.166;4.470;2023-02-26T10:52:27;4.30;99.90
28189;DHT22;15471;51.166;4.470;2023-02-26T10:55:07;4.20;99.90
28189;DHT22;15471;51.166;4.470;2023-02-26T10:57:46;4.10;99.90
28189;DHT22;15471;51.166;4.470;2023-02-26T11:00:19;3.90;99.90
28189;DHT22;15471;51.166;4.470;2023-02-26T11:02:47;3.80;99.90
28189;DHT22;15471;51.166;4.470;2023-02-26T11:05:26;3.80;99.90
28189;DHT22;15471;51.166;4.470;2023-02-26T11:08:00;3.80;99.90
28189;DHT22;15471;51.166;4.470;2023-02-26T11:10:49;3.80;99.90
28189;DHT22;15471;51.166;4.470;2023-02-26T11:13:15;3.90;99.90
28189;DHT22;15471;51.166;4.470;2023-02-26T11:15:42;4.00;99.90
28189;DHT22;15471;51.166;4.470;2023-02-26T11:18:14;4.00;99.90
28189;DHT22;15471;51.166;4.470;2023-02-26T11:20:45;4.20;99.90
28189;DHT22;15471;51.166;4.470;2023-02-26T11:23:17;4.00;99.90
28189;DHT22;15471;51.166;4.470;2023-02-26T11:25:45;4.10;99.90
28189;DHT22;15471;51.166;4.470;2023-02-26T11:28:30;4.10;99.90
28189;DHT22;15471;51.166;4.470;2023-02-26T11:31:00;4.20;99.90
28189;DHT22;15471;51.166;4.470;2023-02-26T11:33:36;4.30;99.90
28189;DHT22;15471;51.166;4.470;2023-02-26T11:36:08;4.30;99.90
28189;DHT22;15471;51.166;4.470;2023-02-26T11:38:34;4.30;99.90
28189;DHT22;15471;51.166;4.470;2023-02-26T11:41:01;4.50;99.90
28189;DHT22;15471;51.166;4.470;2023-02-26T11:43:42;4.50;99.90
28189;DHT22;15471;51.166;4.470;2023-02-26T11:46:09;4.40;99.90
28189;DHT22;15471;51.166;4.470;2023-02-26T11:48:39;4.30;99.90
28189;DHT22;15471;51.166;4.470;2023-02-26T11:51:07;4.20;99.90
28189;DHT22;15471;51.166;4.470;2023-02-26T11:53:48;4.20;99.90
28189;DHT22;15471;51.166;4.470;2023-02-26T11:59:19;4.20;99.90
28189;DHT22;15471;51.166;4.470;2023-02-26T12:01:46;4.30;99.90
28189;DHT22;15471;51.166;4.470;2023-02-26T12:04:15;4.40;99.90
28189;DHT22;15471;51.166;4.470;2023-02-26T12:06:43;4.70;99.90
28189;DHT22;15471;51.166;4.470;2023-02-26T12:09:11;4.70;99.90
28189;DHT22;15471;51.166;4.470;2023-02-26T12:15:16;4.90;99.90
28189;DHT22;15471;51.166;4.470;2023-02-26T12:20:44;4.70;99.90
28189;DHT22;15471;51.166;4.470;2023-02-26T12:28:31;4.70;99.90
28189;DHT22;15471;51.166;4.470;2023-02-26T12:39:41;5.00;99.90
28189;DHT22;15471;51.166;4.470;2023-02-26T12:45:03;5.10;99.80
28189;DHT22;15471;51.166;4.470;2023-02-26T12:47:46;5.10;99.40
28189;DHT22;15471;51.166;4.470;2023-02-26T12:56:03;5.10;99.90
28189;DHT22;15471;51.166;4.470;2023-02-26T13:09:49;5.10;99.90
28189;DHT22;15471;51.166;4.470;2023-02-26T13:15:37;5.40;99.90
28189;DHT22;15471;51.166;4.470;2023-02-26T13:20:57;5.40;99.90
28189;DHT22;15471;51.166;4.470;2023-02-26T13:23:38;5.50;99.90
28189;DHT22;15471;51.166;4.470;2023-02-26T13:26:10;5.50;99.40
28189;DHT22;15471;51.166;4.470;2023-02-26T13:33:45;5.40;99.80
28189;DHT22;15471;51.166;4.470;2023-02-26T13:36:14;5.50;98.90
28189;DHT22;15471;51.166;4.470;2023-02-26T13:44:25;5.30;98.90
28189;DHT22;15471;51.166;4.470;2023-02-26T13:47:14;5.40;98.70
28189;DHT22;15471;51.166;4.470;2023-02-26T13:52:56;5.50;97.80
28189;DHT22;15471;51.166;4.470;2023-02-26T14:01:19;5.50;98.80
28189;DHT22;15471;51.166;4.470;2023-02-26T14:04:05;5.50;99.50
28189;DHT22;15471;51.166;4.470;2023-02-26T14:06:46;5.50;99.90
28189;DHT22;15471;51.166;4.470;2023-02-26T14:12:01;5.60;99.00
28189;DHT22;15471;51.166;4.470;2023-02-26T14:14:35;5.70;99.40
28189;DHT22;15471;51.166;4.470;2023-02-26T14:19:32;5.90;97.90
28189;DHT22;15471;51.166;4.470;2023-02-26T14:22:18;5.80;99.10
28189;DHT22;15471;51.166;4.470;2023-02-26T14:27:41;5.70;99.80
28189;DHT22;15471;51.166;4.470;2023-02-26T14:35:41;5.60;99.50
28189;DHT22;15471;51.166;4.470;2023-02-26T14:38:17;5.60;99.50
28189;DHT22;15471;51.166;4.470;2023-02-26T14:40:56;5.60;99.90
28189;DHT22;15471;51.166;4.470;2023-02-26T14:46:02;5.50;99.90
28189;DHT22;15471;51.166;4.470;2023-02-26T14:48:29;5.40;99.90
28189;DHT22;15471;51.166;4.470;2023-02-26T14:57:14;5.50;99.90
28189;DHT22;15471;51.166;4.470;2023-02-26T15:00:05;5.50;99.90
28189;DHT22;15471;51.166;4.470;2023-02-26T15:11:07;5.60;99.90
28189;DHT22;15471;51.166;4.470;2023-02-26T15:24:28;5.70;99.90
28189;DHT22;15471;51.166;4.470;2023-02-26T15:27:00;5.60;99.90
28189;DHT22;15471;51.166;4.470;2023-02-26T15:29:29;5.60;99.90
28189;DHT22;15471;51.166;4.470;2023-02-26T15:32:05;5.60;99.90
28189;DHT22;15471;51.166;4.470;2023-02-26T15:34:45;5.60;99.90
28189;DHT22;15471;51.166;4.470;2023-02-26T15:37:21;5.70;99.90
28189;DHT22;15471;51.166;4.470;2023-02-26T15:39:59;5.70;99.90
28189;DHT22;15471;51.166;4.470;2023-02-26T15:42:35;5.70;99.90
28189;DHT22;15471;51.166;4.470;2023-02-26T15:45:16;5.70;99.90
28189;DHT22;15471;51.166;4.470;2023-02-26T15:47:44;5.70;99.80
28189;DHT22;15471;51.166;4.470;2023-02-26T15:50:15;5.60;99.90
28189;DHT22;15471;51.166;4.470;2023-02-26T15:52:41;5.50;99.80
28189;DHT22;15471;51.166;4.470;2023-02-26T15:55:12;5.50;99.80
28189;DHT22;15471;51.166;4.470;2023-02-26T15:57:41;5.50;99.80
28189;DHT22;15471;51.166;4.470;2023-02-26T16:00:19;5.50;99.90
28189;DHT22;15471;51.166;4.470;2023-02-26T16:02:54;5.50;99.90
28189;DHT22;15471;51.166;4.470;2023-02-26T16:05:28;5.40;99.90
28189;DHT22;15471;51.166;4.470;2023-02-26T16:07:54;5.50;99.90
28189;DHT22;15471;51.166;4.470;2023-02-26T16:10:39;5.60;99.90
28189;DHT22;15471;51.166;4.470;2023-02-26T16:13:06;5.60;99.90
28189;DHT22;15471;51.166;4.470;2023-02-26T16:15:39;5.50;99.90
28189;DHT22;15471;51.166;4.470;2023-02-26T16:18:13;5.50;99.90
28189;DHT22;15471;51.166;4.470;2023-02-26T16:20:49;5.50;99.90
28189;DHT22;15471;51.166;4.470;2023-02-26T16:23:28;5.50;99.90
28189;DHT22;15471;51.166;4.470;2023-02-26T16:25:59;5.50;99.90
28189;DHT22;15471;51.166;4.470;2023-02-26T16:28:32;5.40;99.90
28189;DHT22;15471;51.166;4.470;2023-02-26T16:31:01;5.50;99.90
28189;DHT22;15471;51.166;4.470;2023-02-26T16:33:32;5.40;99.90
28189;DHT22;15471;51.166;4.470;2023-02-26T16:36:12;5.40;99.90
28189;DHT22;15471;51.166;4.470;2023-02-26T16:38:48;5.40;99.90
28189;DHT22;15471;51.166;4.470;2023-02-26T16:41:14;5.40;99.90
28189;DHT22;15471;51.166;4.470;2023-02-26T16:46:32;5.30;99.90
28189;DHT22;15471;51.166;4.470;2023-02-26T16:49:25;5.30;99.90
28189;DHT22;15471;51.166;4.470;2023-02-26T16:51:52;5.20;99.90
28189;DHT22;15471;51.166;4.470;2023-02-26T16:54:19;5.20;99.90
28189;DHT22;15471;51.166;4.470;2023-02-26T16:56:48;5.10;99.90
28189;DHT22;15471;51.166;4.470;2023-02-26T16:59:23;5.10;99.90
28189;DHT22;15471;51.166;4.470;2023-02-26T17:02:02;5.10;99.90
28189;DHT22;15471;51.166;4.470;2023-02-26T17:04:31;5.00;99.90
28189;DHT22;15471;51.166;4.470;2023-02-26T17:06:59;5.00;99.90
28189;DHT22;15471;51.166;4.470;2023-02-26T17:09:40;4.90;99.90
28189;DHT22;15471;51.166;4.470;2023-02-26T17:12:11;4.80;99.90
28189;DHT22;15471;51.166;4.470;2023-02-26T17:14:44;4.80;99.90
28189;DHT22;15471;51.166;4.470;2023-02-26T17:17:10;4.70;99.90
28189;DHT22;15471;51.166;4.470;2023-02-26T17:19:36;4.70;99.90
28189;DHT22;15471;51.166;4.470;2023-02-26T17:22:03;4.60;99.90
28189;DHT22;15471;51.166;4.470;2023-02-26T17:24:31;4.50;99.90
28189;DHT22;15471;51.166;4.470;2023-02-26T17:26:57;4.50;99.90
28189;DHT22;15471;51.166;4.470;2023-02-26T17:29:34;4.50;99.90
28189;DHT22;15471;51.166;4.470;2023-02-26T17:32:07;4.40;99.90
28189;DHT22;15471;51.166;4.470;2023-02-26T17:34:35;4.30;99.90
28189;DHT22;15471;51.166;4.470;2023-02-26T17:37:02;4.20;99.90
28189;DHT22;15471;51.166;4.470;2023-02-26T17:39:32;4.30;99.90
28189;DHT22;15471;51.166;4.470;2023-02-26T17:41:58;4.30;99.90
28189;DHT22;15471;51.166;4.470;2023-02-26T17:44:24;4.30;99.90
28189;DHT22;15471;51.166;4.470;2023-02-26T17:46:50;4.20;99.90
28189;DHT22;15471;51.166;4.470;2023-02-26T17:49:16;4.20;99.90
28189;DHT22;15471;51.166;4.470;2023-02-26T17:51:42;4.20;99.90
28189;DHT22;15471;51.166;4.470;2023-02-26T17:54:07;4.10;99.90
28189;DHT22;15471;51.166;4.470;2023-02-26T17:56:34;4.10;99.90
28189;DHT22;15471;51.166;4.470;2023-02-26T17:59:02;4.00;99.90
28189;DHT22;15471;51.166;4.470;2023-02-26T18:01:29;3.90;99.90
28189;DHT22;15471;51.166;4.470;2023-02-26T18:03:55;3.80;99.90
28189;DHT22;15471;51.166;4.470;2023-02-26T18:06:22;3.80;99.90
28189;DHT22;15471;51.166;4.470;2023-02-26T18:08:48;3.70;99.90
28189;DHT22;15471;51.166;4.470;2023-02-26T18:11:16;3.60;99.90
28189;DHT22;15471;51.166;4.470;2023-02-26T18:13:42;3.60;99.90
28189;DHT22;15471;51.166;4.470;2023-02-26T18:16:20;3.60;99.90
28189;DHT22;15471;51.166;4.470;2023-02-26T18:18:46;3.60;99.90
28189;DHT22;15471;51.166;4.470;2023-02-26T18:21:12;3.60;99.90
28189;DHT22;15471;51.166;4.470;2023-02-26T18:23:39;3.60;99.90
28189;DHT22;15471;51.166;4.470;2023-02-26T18:26:06;3.70;99.90
28189;DHT22;15471;51.166;4.470;2023-02-26T18:28:34;3.60;99.90
28189;DHT22;15471;51.166;4.470;2023-02-26T18:31:00;3.50;99.90
28189;DHT22;15471;51.166;4.470;2023-02-26T18:33:33;3.50;99.90
28189;DHT22;15471;51.166;4.470;2023-02-26T18:35:58;3.50;99.90
28189;DHT22;15471;51.166;4.470;2023-02-26T18:38:26;3.50;99.90
28189;DHT22;15471;51.166;4.470;2023-02-26T18:40:53;3.40;99.90
28189;DHT22;15471;51.166;4.470;2023-02-26T18:43:19;3.40;99.90
28189;DHT22;15471;51.166;4.470;2023-02-26T18:45:47;3.40;99.90
28189;DHT22;15471;51.166;4.470;2023-02-26T18:48:16;3.30;99.90
28189;DHT22;15471;51.166;4.470;2023-02-26T18:50:43;3.30;99.90
28189;DHT22;15471;51.166;4.470;2023-02-26T18:53:10;3.20;99.90
28189;DHT22;15471;51.166;4.470;2023-02-26T18:55:36;3.10;99.90
28189;DHT22;15471;51.166;4.470;2023-02-26T18:58:02;3.00;99.90
28189;DHT22;15471;51.166;4.470;2023-02-26T19:00:29;3.00;99.90
28189;DHT22;15471;51.166;4.470;2023-02-26T19:02:55;2.90;99.90
28189;DHT22;15471;51.166;4.470;2023-02-26T19:05:21;2.90;99.90
28189;DHT22;15471;51.166;4.470;2023-02-26T19:07:51;2.90;99.90
28189;DHT22;15471;51.166;4.470;2023-02-26T19:10:18;2.90;99.90
28189;DHT22;15471;51.166;4.470;2023-02-26T19:12:44;2.90;99.90
28189;DHT22;15471;51.166;4.470;2023-02-26T19:15:10;2.90;99.90
28189;DHT22;15471;51.166;4.470;2023-02-26T19:17:38;2.90;99.90
28189;DHT22;15471;51.166;4.470;2023-02-26T19:20:04;2.90;99.90
28189;DHT22;15471;51.166;4.470;2023-02-26T19:22:30;2.90;99.90
28189;DHT22;15471;51.166;4.470;2023-02-26T19:24:56;2.80;99.90